Richmond-upon-Thames, United Kingdom
Current Conditions -  °F | °C
As of 5:50 AM on Thursday 18 Dec 2014 (Local Time) from EGLL Reporting Station
Broken Clouds Broken Clouds  
Wind Chill: 55°   Ceiling: 1800
Heat Index: 55°   Visibility: 6mi
Dew Point: 52°   Wind: 16mph
Humidity: 88%   Direction: 250°WSW
Pressure: 29.83"   Gusts: NA
Location:  51.46°N, 0.3°W
Report Text: EGLL 180550Z 25014KT 9999 BKN018 13/11 Q1010
Loading
Personal Weather Stations






























Interactive Weather Map New forecast layout! Learn more

10-Day Weather Forecast

Advertisements
Track Severe Weather on mobile